IGO6209 VOMM-VOBL
Flight info
| Callsign | IGO6209 |
|---|---|
| Flight time | 0h 36m |
| Altitude | 16000 |
| Route | MMV W117 XIVIL XIVIL7F |
| Aircraft | A21N/M-SDE2E3FGHIRWXY/LB1 |
Departure
| Time | 2026-04-29 09:27 |
|---|---|
| Airport | Chennai International Airport (VOMM) |
Arrival
| Time | 2026-04-29 10:03 |
|---|---|
| Airport | Kempegowda International Airport Bengaluru (VOBL) |
| Time | Latitude | Longitude | Altitude | Speed | Heading |
|---|---|---|---|---|---|
| 2026-04-29 09:07 | 12.98467 | 80.16599 | 61 ft | 0 kts | 159° |
| 2026-04-29 09:15 | 12.98468 | 80.16599 | 61 ft | 3 kts | 159° |
| 2026-04-29 09:16 | 12.98490 | 80.16590 | 59 ft | 2 kts | 158° |
| 2026-04-29 09:16 | 12.98499 | 80.16586 | 58 ft | 1 kts | 154° |
| 2026-04-29 09:16 | 12.98507 | 80.16582 | 55 ft | 1 kts | 147° |
| 2026-04-29 09:16 | 12.98514 | 80.16577 | 62 ft | 1 kts | 134° |
| 2026-04-29 09:17 | 12.98519 | 80.16570 | 54 ft | 1 kts | 121° |
| 2026-04-29 09:17 | 12.98523 | 80.16563 | 63 ft | 1 kts | 109° |
| 2026-04-29 09:17 | 12.98524 | 80.16560 | 57 ft | 0 kts | 105° |
| 2026-04-29 09:19 | 12.98522 | 80.16566 | 63 ft | 3 kts | 105° |
| 2026-04-29 09:19 | 12.98520 | 80.16576 | 55 ft | 0 kts | 104° |
| 2026-04-29 09:20 | 12.98519 | 80.16578 | 61 ft | 2 kts | 104° |
| 2026-04-29 09:20 | 12.98523 | 80.16602 | 58 ft | 4 kts | 67° |
| 2026-04-29 09:21 | 12.98544 | 80.16644 | 57 ft | 9 kts | 63° |
| 2026-04-29 09:21 | 12.98577 | 80.16714 | 61 ft | 13 kts | 65° |
| 2026-04-29 09:21 | 12.98656 | 80.16755 | 57 ft | 17 kts | 338° |
| 2026-04-29 09:21 | 12.98768 | 80.16770 | 54 ft | 16 kts | 77° |
| 2026-04-29 09:22 | 12.98809 | 80.16882 | 57 ft | 18 kts | 67° |
| 2026-04-29 09:22 | 12.98859 | 80.17006 | 56 ft | 20 kts | 68° |
| 2026-04-29 09:22 | 12.98913 | 80.17146 | 60 ft | 22 kts | 68° |
| 2026-04-29 09:22 | 12.98978 | 80.17298 | 60 ft | 25 kts | 67° |
| 2026-04-29 09:23 | 12.99047 | 80.17470 | 61 ft | 27 kts | 68° |
| 2026-04-29 09:23 | 12.99121 | 80.17659 | 54 ft | 30 kts | 65° |
| 2026-04-29 09:23 | 12.99236 | 80.17800 | 59 ft | 23 kts | 77° |
| 2026-04-29 09:23 | 12.99297 | 80.17961 | 58 ft | 25 kts | 70° |
| 2026-04-29 09:24 | 12.99360 | 80.18142 | 57 ft | 28 kts | 84° |
| 2026-04-29 09:24 | 12.99364 | 80.18250 | 58 ft | 0 kts | 65° |
| 2026-04-29 09:24 | 12.99370 | 80.18260 | 61 ft | 3 kts | 58° |
| 2026-04-29 09:24 | 12.99391 | 80.18284 | 59 ft | 6 kts | 44° |
| 2026-04-29 09:25 | 12.99426 | 80.18315 | 54 ft | 0 kts | 41° |
| 2026-04-29 09:25 | 12.99432 | 80.18320 | 61 ft | 3 kts | 41° |
| 2026-04-29 09:25 | 12.99460 | 80.18346 | 59 ft | 8 kts | 41° |
| 2026-04-29 09:25 | 12.99522 | 80.18400 | 55 ft | 15 kts | 32° |
| 2026-04-29 09:26 | 12.99559 | 80.18332 | 57 ft | 29 kts | 246° |
| 2026-04-29 09:26 | 12.99387 | 80.17887 | 60 ft | 106 kts | 249° |
| 2026-04-29 09:26 | 12.99039 | 80.16964 | 57 ft | 167 kts | 248° |
| 2026-04-29 09:26 | 12.98632 | 80.15801 | 636 ft | 166 kts | 248° |
| 2026-04-29 09:27 | 12.98253 | 80.14656 | 1179 ft | 178 kts | 249° |
| 2026-04-29 09:27 | 12.98318 | 80.13313 | 1603 ft | 203 kts | 282° |
| 2026-04-29 09:27 | 12.98757 | 80.11883 | 2190 ft | 218 kts | 283° |
| 2026-04-29 09:27 | 12.99215 | 80.10309 | 2615 ft | 242 kts | 282° |
| 2026-04-29 09:28 | 12.99692 | 80.08611 | 3179 ft | 260 kts | 282° |
| 2026-04-29 09:28 | 13.00205 | 80.06766 | 3904 ft | 273 kts | 282° |
| 2026-04-29 09:28 | 13.00735 | 80.04867 | 4769 ft | 278 kts | 283° |
| 2026-04-29 09:28 | 13.01267 | 80.02973 | 5640 ft | 280 kts | 284° |
| 2026-04-29 09:29 | 13.01805 | 80.01035 | 6451 ft | 283 kts | 284° |
| 2026-04-29 09:29 | 13.02892 | 79.97114 | 7951 ft | 291 kts | 285° |
| 2026-04-29 09:29 | 13.03455 | 79.95093 | 8657 ft | 296 kts | 285° |
| 2026-04-29 09:30 | 13.04024 | 79.93042 | 9341 ft | 300 kts | 285° |
| 2026-04-29 09:30 | 13.04593 | 79.90980 | 9987 ft | 306 kts | 286° |
| 2026-04-29 09:30 | 13.05194 | 79.88811 | 10347 ft | 324 kts | 286° |
| 2026-04-29 09:30 | 13.05820 | 79.86542 | 10620 ft | 342 kts | 286° |
| 2026-04-29 09:31 | 13.06487 | 79.84124 | 10877 ft | 361 kts | 286° |
| 2026-04-29 09:31 | 13.07185 | 79.81571 | 11136 ft | 378 kts | 286° |
| 2026-04-29 09:31 | 13.07869 | 79.78939 | 11497 ft | 390 kts | 285° |
| 2026-04-29 09:31 | 13.08545 | 79.76210 | 12106 ft | 395 kts | 285° |
| 2026-04-29 09:32 | 13.09220 | 79.73489 | 12792 ft | 398 kts | 285° |
| 2026-04-29 09:32 | 13.09911 | 79.70708 | 13421 ft | 400 kts | 285° |
| 2026-04-29 09:32 | 13.10589 | 79.67966 | 13730 ft | 402 kts | 285° |
| 2026-04-29 09:32 | 13.11279 | 79.65172 | 13808 ft | 402 kts | 285° |
| 2026-04-29 09:33 | 13.11977 | 79.62388 | 13836 ft | 402 kts | 285° |
| 2026-04-29 09:33 | 13.12675 | 79.59616 | 14002 ft | 402 kts | 285° |
| 2026-04-29 09:33 | 13.13369 | 79.56843 | 14573 ft | 405 kts | 285° |
| 2026-04-29 09:33 | 13.14068 | 79.54033 | 15204 ft | 407 kts | 285° |
| 2026-04-29 09:34 | 13.14768 | 79.51200 | 15645 ft | 408 kts | 285° |
| 2026-04-29 09:34 | 13.15459 | 79.48399 | 15791 ft | 405 kts | 284° |
| 2026-04-29 09:34 | 13.16144 | 79.45605 | 15812 ft | 401 kts | 284° |
| 2026-04-29 09:34 | 13.16829 | 79.42830 | 15806 ft | 401 kts | 285° |
| 2026-04-29 09:35 | 13.17514 | 79.40049 | 15806 ft | 401 kts | 284° |
| 2026-04-29 09:35 | 13.18197 | 79.37271 | 15797 ft | 401 kts | 284° |
| 2026-04-29 09:35 | 13.18870 | 79.34531 | 15795 ft | 401 kts | 284° |
| 2026-04-29 09:35 | 13.19556 | 79.31759 | 15793 ft | 401 kts | 285° |
| 2026-04-29 09:36 | 13.20250 | 79.28972 | 15792 ft | 400 kts | 285° |
| 2026-04-29 09:36 | 13.20938 | 79.26192 | 15787 ft | 401 kts | 285° |
| 2026-04-29 09:36 | 13.21620 | 79.23450 | 15786 ft | 400 kts | 284° |
| 2026-04-29 09:36 | 13.22309 | 79.20664 | 15785 ft | 401 kts | 284° |
| 2026-04-29 09:37 | 13.22995 | 79.17883 | 15783 ft | 402 kts | 284° |
| 2026-04-29 09:37 | 13.23679 | 79.15091 | 15782 ft | 402 kts | 284° |
| 2026-04-29 09:37 | 13.24358 | 79.12334 | 15781 ft | 402 kts | 285° |
| 2026-04-29 09:37 | 13.25045 | 79.09548 | 15780 ft | 402 kts | 284° |
| 2026-04-29 09:38 | 13.25729 | 79.06752 | 15779 ft | 402 kts | 284° |
| 2026-04-29 09:38 | 13.26420 | 79.03961 | 15779 ft | 402 kts | 285° |
| 2026-04-29 09:38 | 13.27107 | 79.01202 | 15781 ft | 402 kts | 285° |
| 2026-04-29 09:38 | 13.27797 | 78.98410 | 15779 ft | 402 kts | 284° |
| 2026-04-29 09:39 | 13.28470 | 78.95653 | 15785 ft | 402 kts | 284° |
| 2026-04-29 09:39 | 13.29117 | 78.92852 | 15787 ft | 402 kts | 281° |
| 2026-04-29 09:39 | 13.29314 | 78.89983 | 15789 ft | 403 kts | 269° |
| 2026-04-29 09:39 | 13.29138 | 78.87139 | 15794 ft | 403 kts | 266° |
| 2026-04-29 09:40 | 13.28908 | 78.84262 | 15791 ft | 403 kts | 266° |
| 2026-04-29 09:40 | 13.28681 | 78.81372 | 15794 ft | 403 kts | 266° |
| 2026-04-29 09:40 | 13.28537 | 78.79474 | 15798 ft | 403 kts | 266° |
| 2026-04-29 09:40 | 13.28256 | 78.75665 | 15806 ft | 403 kts | 266° |
| 2026-04-29 09:41 | 13.28115 | 78.73720 | 15805 ft | 403 kts | 266° |
| 2026-04-29 09:41 | 13.27837 | 78.69909 | 15815 ft | 406 kts | 266° |
| 2026-04-29 09:41 | 13.27697 | 78.67983 | 15821 ft | 409 kts | 266° |
| 2026-04-29 09:41 | 13.27415 | 78.64100 | 15802 ft | 406 kts | 266° |
| 2026-04-29 09:42 | 13.27206 | 78.61244 | 15210 ft | 398 kts | 266° |
| 2026-04-29 09:42 | 13.27067 | 78.59362 | 14702 ft | 398 kts | 266° |
| 2026-04-29 09:42 | 13.26860 | 78.56510 | 14146 ft | 398 kts | 266° |
| 2026-04-29 09:42 | 13.26653 | 78.53677 | 13913 ft | 397 kts | 266° |
| 2026-04-29 09:43 | 13.26451 | 78.50885 | 13847 ft | 397 kts | 266° |
| 2026-04-29 09:43 | 13.26208 | 78.47114 | 13838 ft | 397 kts | 269° |
| 2026-04-29 09:43 | 13.26322 | 78.45202 | 13844 ft | 397 kts | 278° |
| 2026-04-29 09:43 | 13.26745 | 78.42438 | 13857 ft | 396 kts | 280° |
| 2026-04-29 09:44 | 13.27214 | 78.39636 | 13862 ft | 397 kts | 280° |
| 2026-04-29 09:44 | 13.27682 | 78.36844 | 13868 ft | 396 kts | 280° |
| 2026-04-29 09:44 | 13.28137 | 78.34047 | 13874 ft | 397 kts | 280° |
| 2026-04-29 09:44 | 13.28583 | 78.31257 | 13757 ft | 391 kts | 279° |
| 2026-04-29 09:45 | 13.29013 | 78.28530 | 12888 ft | 391 kts | 279° |
| 2026-04-29 09:45 | 13.29452 | 78.25741 | 11846 ft | 396 kts | 279° |
| 2026-04-29 09:45 | 13.29894 | 78.22986 | 11196 ft | 382 kts | 280° |
| 2026-04-29 09:45 | 13.30309 | 78.20386 | 10714 ft | 363 kts | 279° |
| 2026-04-29 09:46 | 13.30857 | 78.17864 | 9774 ft | 360 kts | 292° |
| 2026-04-29 09:46 | 13.32143 | 78.15708 | 9212 ft | 348 kts | 314° |
| 2026-04-29 09:46 | 13.34021 | 78.14304 | 8977 ft | 323 kts | 338° |
| 2026-04-29 09:46 | 13.36100 | 78.13903 | 8891 ft | 296 kts | 5° |
| 2026-04-29 09:47 | 13.38029 | 78.14393 | 8880 ft | 276 kts | 15° |
| 2026-04-29 09:47 | 13.39840 | 78.14851 | 8860 ft | 258 kts | 21° |
| 2026-04-29 09:47 | 13.41257 | 78.15770 | 8842 ft | 234 kts | 49° |
| 2026-04-29 09:47 | 13.41976 | 78.17166 | 8831 ft | 217 kts | 80° |
| 2026-04-29 09:48 | 13.42114 | 78.18711 | 8857 ft | 217 kts | 88° |
| 2026-04-29 09:48 | 13.41995 | 78.20258 | 8862 ft | 217 kts | 99° |
| 2026-04-29 09:48 | 13.41747 | 78.21770 | 8868 ft | 217 kts | 100° |
| 2026-04-29 09:48 | 13.41484 | 78.23302 | 8870 ft | 217 kts | 100° |
| 2026-04-29 09:49 | 13.41220 | 78.24834 | 8867 ft | 217 kts | 99° |
| 2026-04-29 09:49 | 13.40957 | 78.26371 | 8861 ft | 218 kts | 100° |
| 2026-04-29 09:49 | 13.40696 | 78.27889 | 8863 ft | 217 kts | 100° |
| 2026-04-29 09:49 | 13.40433 | 78.29418 | 8863 ft | 217 kts | 100° |
| 2026-04-29 09:50 | 13.40121 | 78.30938 | 8852 ft | 217 kts | 113° |
| 2026-04-29 09:50 | 13.39346 | 78.32249 | 8857 ft | 218 kts | 126° |
| 2026-04-29 09:50 | 13.38432 | 78.33464 | 8629 ft | 212 kts | 130° |
| 2026-04-29 09:50 | 13.37255 | 78.34340 | 8149 ft | 211 kts | 162° |
| 2026-04-29 09:51 | 13.35810 | 78.34628 | 7672 ft | 213 kts | 184° |
| 2026-04-29 09:51 | 13.34449 | 78.34134 | 7193 ft | 213 kts | 216° |
| 2026-04-29 09:51 | 13.33366 | 78.33083 | 6960 ft | 214 kts | 222° |
| 2026-04-29 09:51 | 13.32472 | 78.31880 | 6929 ft | 214 kts | 250° |
| 2026-04-29 09:52 | 13.32154 | 78.30401 | 6940 ft | 215 kts | 262° |
| 2026-04-29 09:52 | 13.31949 | 78.28877 | 6950 ft | 215 kts | 262° |
| 2026-04-29 09:52 | 13.31746 | 78.27358 | 6958 ft | 215 kts | 262° |
| 2026-04-29 09:52 | 13.31542 | 78.25832 | 6963 ft | 215 kts | 262° |
| 2026-04-29 09:53 | 13.31341 | 78.24331 | 6962 ft | 215 kts | 262° |
| 2026-04-29 09:53 | 13.31137 | 78.22807 | 6960 ft | 215 kts | 262° |
| 2026-04-29 09:53 | 13.30932 | 78.21279 | 6964 ft | 215 kts | 262° |
| 2026-04-29 09:53 | 13.30727 | 78.19758 | 6971 ft | 215 kts | 262° |
| 2026-04-29 09:54 | 13.30523 | 78.18251 | 7030 ft | 215 kts | 262° |
| 2026-04-29 09:54 | 13.30277 | 78.16728 | 6993 ft | 215 kts | 252° |
| 2026-04-29 09:54 | 13.29624 | 78.15375 | 6736 ft | 210 kts | 239° |
| 2026-04-29 09:54 | 13.28884 | 78.14085 | 6352 ft | 208 kts | 239° |
| 2026-04-29 09:55 | 13.28164 | 78.12832 | 6032 ft | 205 kts | 239° |
| 2026-04-29 09:55 | 13.27438 | 78.11569 | 5950 ft | 205 kts | 239° |
| 2026-04-29 09:55 | 13.26713 | 78.10306 | 5947 ft | 204 kts | 239° |
| 2026-04-29 09:55 | 13.25997 | 78.09058 | 5974 ft | 204 kts | 239° |
| 2026-04-29 09:56 | 13.25270 | 78.07795 | 5979 ft | 204 kts | 239° |
| 2026-04-29 09:56 | 13.24551 | 78.06543 | 5984 ft | 205 kts | 239° |
| 2026-04-29 09:56 | 13.23823 | 78.05276 | 5985 ft | 205 kts | 239° |
| 2026-04-29 09:56 | 13.23100 | 78.04011 | 5986 ft | 205 kts | 239° |
| 2026-04-29 09:57 | 13.22390 | 78.02762 | 5988 ft | 205 kts | 239° |
| 2026-04-29 09:57 | 13.21668 | 78.01492 | 5988 ft | 205 kts | 239° |
| 2026-04-29 09:57 | 13.20965 | 78.00239 | 5984 ft | 205 kts | 242° |
| 2026-04-29 09:57 | 13.20591 | 77.98819 | 5980 ft | 207 kts | 262° |
| 2026-04-29 09:58 | 13.20499 | 77.97342 | 5985 ft | 208 kts | 269° |
| 2026-04-29 09:58 | 13.20506 | 77.95855 | 5988 ft | 208 kts | 270° |
| 2026-04-29 09:58 | 13.20516 | 77.94390 | 5991 ft | 207 kts | 270° |
| 2026-04-29 09:58 | 13.20526 | 77.92905 | 5992 ft | 208 kts | 270° |
| 2026-04-29 09:59 | 13.20538 | 77.91416 | 5994 ft | 208 kts | 270° |
| 2026-04-29 09:59 | 13.20550 | 77.89929 | 5993 ft | 208 kts | 270° |
| 2026-04-29 09:59 | 13.20561 | 77.88459 | 5951 ft | 208 kts | 270° |
| 2026-04-29 09:59 | 13.20573 | 77.86971 | 5760 ft | 207 kts | 270° |
| 2026-04-29 10:00 | 13.20584 | 77.85516 | 5504 ft | 205 kts | 270° |
| 2026-04-29 10:00 | 13.20596 | 77.84048 | 5229 ft | 203 kts | 270° |
| 2026-04-29 10:00 | 13.20607 | 77.82599 | 4950 ft | 202 kts | 270° |
| 2026-04-29 10:00 | 13.20618 | 77.81178 | 4681 ft | 200 kts | 270° |
| 2026-04-29 10:01 | 13.20629 | 77.79773 | 4414 ft | 191 kts | 270° |
| 2026-04-29 10:01 | 13.20640 | 77.78443 | 4158 ft | 181 kts | 269° |
| 2026-04-29 10:01 | 13.20650 | 77.77199 | 3926 ft | 170 kts | 269° |
| 2026-04-29 10:01 | 13.20658 | 77.76072 | 3743 ft | 146 kts | 269° |
| 2026-04-29 10:02 | 13.20666 | 77.75047 | 3545 ft | 143 kts | 269° |
| 2026-04-29 10:02 | 13.20674 | 77.74039 | 3359 ft | 142 kts | 269° |
| 2026-04-29 10:02 | 13.20674 | 77.73023 | 3175 ft | 142 kts | 269° |
| 2026-04-29 10:02 | 13.20687 | 77.72007 | 2988 ft | 141 kts | 271° |
| 2026-04-29 10:03 | 13.20696 | 77.71115 | 2974 ft | 94 kts | 270° |
| 2026-04-29 10:03 | 13.20705 | 77.70717 | 2974 ft | 32 kts | 262° |
| 2026-04-29 10:03 | 13.20693 | 77.70481 | 2973 ft | 34 kts | 255° |
| 2026-04-29 10:03 | 13.20596 | 77.70274 | 2977 ft | 15 kts | 238° |
| 2026-04-29 10:04 | 13.20550 | 77.70264 | 2977 ft | 0 kts | 103° |
| 2026-04-29 10:04 | 13.20549 | 77.70266 | 2977 ft | 1 kts | 103° |
| 2026-04-29 10:04 | 13.20545 | 77.70284 | 2977 ft | 4 kts | 103° |
| 2026-04-29 10:04 | 13.20537 | 77.70320 | 2976 ft | 6 kts | 103° |
| 2026-04-29 10:05 | 13.20522 | 77.70371 | 2975 ft | 9 kts | 129° |
| 2026-04-29 10:05 | 13.20451 | 77.70389 | 2976 ft | 13 kts | 176° |
| 2026-04-29 10:05 | 13.20353 | 77.70389 | 2974 ft | 16 kts | 181° |
| 2026-04-29 10:05 | 13.20256 | 77.70351 | 2974 ft | 16 kts | 245° |
| 2026-04-29 10:06 | 13.20242 | 77.70364 | 2974 ft | 5 kts | 76° |
| 2026-04-29 10:06 | 13.20247 | 77.70412 | 2974 ft | 9 kts | 84° |
| 2026-04-29 10:06 | 13.20253 | 77.70485 | 2974 ft | 12 kts | 90° |
| 2026-04-29 10:06 | 13.20249 | 77.70582 | 2974 ft | 15 kts | 92° |
| 2026-04-29 10:07 | 13.20243 | 77.70703 | 2974 ft | 18 kts | 93° |
| 2026-04-29 10:07 | 13.20243 | 77.70843 | 2974 ft | 21 kts | 88° |
| 2026-04-29 10:07 | 13.20223 | 77.70883 | 2974 ft | 6 kts | 193° |
| 2026-04-29 10:07 | 13.20182 | 77.70877 | 2974 ft | 2 kts | 171° |